Time;durP1;ratioP1;P1;durP2;ratioP2;P2;SDS_P1;SDS_P2;PMS_P1;PMS_P2;Temp;Humidity;BMP_temperature;BMP_pressure;BME280_temperature;BME280_humidity;BME280_pressure;Samples;Min_cycle;Max_cycle;Signal;HPM_P1;HPM_P2
2022/08/16 00:01:24;;;;;;;7.33;6.73;;;17.50;99.90;;;;;;5034093;28;20214;-80
2022/08/16 00:03:52;;;;;;;7.10;6.50;;;17.40;99.90;;;;;;5031747;28;20672;-80
2022/08/16 00:06:18;;;;;;;7.30;6.70;;;17.40;99.90;;;;;;5036870;28;20284;-80
2022/08/16 00:08:45;;;;;;;7.00;6.40;;;17.30;99.90;;;;;;5033750;28;20220;-79
2022/08/16 00:11:13;;;;;;;7.73;7.10;;;17.30;99.90;;;;;;5039212;28;20227;-79
2022/08/16 00:13:40;;;;;;;7.67;7.07;;;17.30;99.90;;;;;;5039944;28;20219;-80
2022/08/16 00:16:08;;;;;;;7.70;6.90;;;17.20;99.90;;;;;;5035555;28;20246;-80
2022/08/16 00:18:36;;;;;;;8.60;7.20;;;17.20;99.90;;;;;;5041507;28;20273;-80
2022/08/16 00:21:03;;;;;;;7.63;7.00;;;17.20;99.90;;;;;;5035393;28;20207;-80
2022/08/16 00:23:30;;;;;;;7.90;7.20;;;17.10;99.90;;;;;;5037320;28;20282;-80
2022/08/16 00:25:57;;;;;;;7.40;6.77;;;17.10;99.90;;;;;;5033174;28;20696;-80
2022/08/16 00:28:23;;;;;;;7.60;7.00;;;17.10;99.90;;;;;;5037868;28;20216;-79
2022/08/16 00:30:50;;;;;;;7.40;6.80;;;17.10;99.90;;;;;;5039413;28;20226;-80
2022/08/16 00:33:19;;;;;;;7.40;6.80;;;17.10;99.90;;;;;;5033526;28;20768;-80
2022/08/16 00:35:45;;;;;;;6.70;6.13;;;17.10;99.90;;;;;;5033813;28;20206;-80
2022/08/16 00:38:13;;;;;;;7.67;6.80;;;17.10;99.90;;;;;;5035671;28;20581;-80
2022/08/16 00:40:42;;;;;;;7.17;6.43;;;17.00;99.90;;;;;;5038149;28;20258;-80
2022/08/16 00:43:14;;;;;;;7.77;7.03;;;17.00;99.90;;;;;;5024695;28;20203;-79
2022/08/16 00:45:46;;;;;;;7.97;6.80;;;17.00;99.90;;;;;;5033796;28;20203;-80
2022/08/16 00:48:14;;;;;;;7.77;6.87;;;16.90;99.90;;;;;;5028663;28;20285;-79
2022/08/16 00:50:43;;;;;;;7.00;6.40;;;16.90;99.90;;;;;;5034357;28;20737;-80
2022/08/16 00:53:14;;;;;;;7.17;6.67;;;16.90;99.90;;;;;;5032682;28;20211;-78
2022/08/16 00:55:45;;;;;;;6.77;6.17;;;17.00;99.90;;;;;;5036252;28;20199;-80
2022/08/16 00:58:14;;;;;;;7.37;6.60;;;17.10;99.90;;;;;;5028255;28;20266;-80
2022/08/16 01:00:42;;;;;;;6.93;6.40;;;17.10;99.90;;;;;;5033199;28;20249;-80
2022/08/16 01:03:12;;;;;;;6.93;6.33;;;17.20;99.90;;;;;;5034204;28;20339;-79
2022/08/16 01:05:39;;;;;;;7.30;6.67;;;17.20;99.90;;;;;;5034279;28;20204;-79
2022/08/16 01:08:10;;;;;;;6.73;6.23;;;17.20;99.90;;;;;;5039888;28;20754;-78
2022/08/16 01:10:37;;;;;;;7.00;6.40;;;17.30;99.90;;;;;;5034715;28;20283;-80
2022/08/16 01:13:08;;;;;;;6.80;6.20;;;17.30;99.90;;;;;;5032827;28;20223;-79
2022/08/16 01:15:37;;;;;;;6.80;6.20;;;17.30;99.90;;;;;;5032061;28;20668;-80
2022/08/16 01:18:06;;;;;;;6.73;6.13;;;17.40;99.90;;;;;;5039169;28;20246;-80
2022/08/16 01:20:40;;;;;;;7.07;6.37;;;17.40;99.90;;;;;;5034194;28;20233;-79
2022/08/16 01:23:14;;;;;;;6.77;6.27;;;17.40;99.90;;;;;;5033333;28;20196;-80
2022/08/16 01:25:47;;;;;;;6.83;6.23;;;17.40;99.90;;;;;;5030919;28;20582;-80
2022/08/16 01:28:16;;;;;;;7.07;6.47;;;17.30;99.90;;;;;;5032544;28;20273;-80
2022/08/16 01:30:48;;;;;;;6.93;6.33;;;17.30;99.90;;;;;;5037502;28;20672;-80
2022/08/16 01:33:17;;;;;;;7.20;6.60;;;17.10;99.90;;;;;;5025168;28;20707;-79
2022/08/16 01:35:52;;;;;;;7.30;6.70;;;17.10;99.90;;;;;;5029402;28;20208;-79
2022/08/16 01:38:22;;;;;;;8.00;7.20;;;17.00;99.90;;;;;;5035300;28;20242;-80
2022/08/16 01:40:55;;;;;;;7.73;6.93;;;16.90;99.90;;;;;;5036419;28;20192;-80
2022/08/16 01:43:23;;;;;;;7.60;6.90;;;16.90;99.90;;;;;;5031144;28;20222;-79
2022/08/16 01:45:54;;;;;;;7.10;6.50;;;16.80;99.90;;;;;;5037002;28;20196;-80
2022/08/16 01:48:22;;;;;;;7.90;6.97;;;16.70;99.90;;;;;;5036208;28;20314;-80
2022/08/16 01:50:51;;;;;;;7.60;6.90;;;16.70;99.90;;;;;;5035655;28;20547;-80
2022/08/16 01:53:18;;;;;;;7.37;6.70;;;16.70;99.90;;;;;;5030770;28;20215;-79
2022/08/16 01:56:23;;;;;;;7.60;6.87;;;16.60;99.90;;;;;;5017969;28;20277;-79
2022/08/16 01:58:51;;;;;;;7.27;6.60;;;16.60;99.90;;;;;;5038028;28;20687;-80
2022/08/16 02:01:18;;;;;;;7.27;6.53;;;16.60;99.90;;;;;;5035256;28;20623;-79
2022/08/16 02:03:45;;;;;;;6.60;6.07;;;16.70;99.90;;;;;;5032601;28;20189;-80
2022/08/16 02:06:11;;;;;;;6.90;6.20;;;16.70;99.90;;;;;;5040598;28;20279;-79
2022/08/16 02:08:38;;;;;;;6.50;6.00;;;16.70;99.90;;;;;;5035639;28;20216;-80
2022/08/16 02:11:08;;;;;;;7.10;6.50;;;16.70;99.90;;;;;;5034248;28;20632;-80
2022/08/16 02:13:39;;;;;;;7.00;6.33;;;16.70;99.90;;;;;;5031679;28;20272;-80
2022/08/16 02:16:06;;;;;;;7.57;6.17;;;16.80;99.90;;;;;;5026040;28;20203;-79
2022/08/16 02:18:34;;;;;;;6.60;6.00;;;16.70;99.90;;;;;;5038295;28;20270;-80
2022/08/16 02:21:03;;;;;;;6.50;6.00;;;16.60;99.90;;;;;;5032484;28;20773;-79
2022/08/16 02:23:29;;;;;;;7.43;6.30;;;16.50;99.90;;;;;;5033899;28;20251;-79
2022/08/16 02:25:57;;;;;;;6.87;6.27;;;16.40;99.90;;;;;;5038465;28;20195;-79
2022/08/16 02:28:25;;;;;;;6.70;6.20;;;16.40;99.90;;;;;;5032039;28;20219;-79
2022/08/16 02:30:54;;;;;;;6.83;6.13;;;16.30;99.90;;;;;;5032912;28;20278;-80
2022/08/16 02:33:23;;;;;;;7.17;6.47;;;16.30;99.90;;;;;;5028475;28;20199;-79
2022/08/16 02:35:49;;;;;;;6.70;6.17;;;16.30;99.90;;;;;;5038413;28;20260;-79
2022/08/16 02:38:17;;;;;;;7.20;6.60;;;16.20;99.90;;;;;;5034176;28;20340;-80
2022/08/16 02:40:44;;;;;;;7.63;6.67;;;16.20;99.90;;;;;;5031137;28;20216;-80
2022/08/16 02:43:12;;;;;;;6.73;6.13;;;16.10;99.90;;;;;;5038055;28;20641;-80
2022/08/16 02:45:39;;;;;;;7.77;6.97;;;16.00;99.90;;;;;;5030650;28;20200;-79
2022/08/16 02:48:08;;;;;;;8.07;6.90;;;16.00;99.90;;;;;;5027389;28;20882;-80
2022/08/16 02:50:35;;;;;;;8.70;7.73;;;16.00;99.90;;;;;;5040837;28;20655;-80
2022/08/16 02:53:01;;;;;;;6.73;6.23;;;15.90;99.90;;;;;;5033130;28;20233;-80
2022/08/16 02:55:29;;;;;;;8.03;7.33;;;15.90;99.90;;;;;;5044589;28;20203;-79
2022/08/16 02:57:56;;;;;;;8.40;6.97;;;15.80;99.90;;;;;;5041427;28;20584;-81
2022/08/16 03:00:23;;;;;;;7.67;7.00;;;15.70;99.90;;;;;;5022860;28;20192;-81
2022/08/16 03:02:50;;;;;;;7.57;7.07;;;15.80;99.90;;;;;;5018540;28;20195;-83
2022/08/16 03:05:18;;;;;;;8.00;7.30;;;15.80;99.90;;;;;;5028042;28;20210;-81
2022/08/16 03:07:45;;;;;;;8.27;7.57;;;15.70;99.90;;;;;;5033712;28;20214;-81
2022/08/16 03:10:13;;;;;;;8.20;7.40;;;15.70;99.90;;;;;;5039069;28;20198;-81
2022/08/16 03:12:48;;;;;;;7.83;7.23;;;15.70;99.90;;;;;;5034844;28;20211;-83
2022/08/16 03:15:16;;;;;;;7.60;7.00;;;15.70;99.90;;;;;;5032573;28;20270;-80
2022/08/16 03:17:44;;;;;;;7.77;7.07;;;15.70;99.90;;;;;;5045142;28;20216;-81
2022/08/16 03:20:13;;;;;;;7.10;6.60;;;15.70;99.90;;;;;;5032270;28;20203;-79
2022/08/16 03:22:42;;;;;;;7.60;7.00;;;15.70;99.90;;;;;;5038035;28;20206;-83
2022/08/16 03:25:14;;;;;;;7.53;6.97;;;15.70;99.90;;;;;;5034066;28;20210;-80
2022/08/16 03:27:51;;;;;;;7.70;7.10;;;15.80;99.90;;;;;;5040221;28;20742;-78
2022/08/16 03:30:21;;;;;;;8.57;7.77;;;15.80;99.90;;;;;;5036976;28;20274;-80
2022/08/16 03:32:58;;;;;;;7.70;7.10;;;15.80;99.90;;;;;;5045825;28;20279;-79
2022/08/16 03:35:33;;;;;;;8.30;7.60;;;15.80;99.90;;;;;;5036866;28;20473;-81
2022/08/16 03:38:05;;;;;;;7.97;7.37;;;15.90;99.90;;;;;;5040712;28;20322;-81
2022/08/16 03:40:42;;;;;;;7.53;6.93;;;15.90;99.90;;;;;;5050644;28;20201;-82
2022/08/16 03:43:12;;;;;;;7.87;7.27;;;15.90;99.90;;;;;;5031263;28;20662;-80
2022/08/16 03:45:40;;;;;;;8.13;7.43;;;15.80;99.90;;;;;;5044299;28;20645;-81
2022/08/16 03:48:09;;;;;;;8.07;7.43;;;15.80;99.90;;;;;;5046740;28;20238;-82
2022/08/16 03:50:37;;;;;;;8.03;7.40;;;15.70;99.90;;;;;;5043983;28;20202;-81
2022/08/16 03:53:06;;;;;;;8.07;7.37;;;15.60;99.90;;;;;;5049984;28;20214;-81
2022/08/16 03:55:35;;;;;;;7.80;7.20;;;15.60;99.90;;;;;;5034068;28;20238;-81
2022/08/16 03:58:02;;;;;;;7.97;7.37;;;15.50;99.90;;;;;;5042271;28;20220;-81
2022/08/16 04:00:30;;;;;;;8.20;7.50;;;15.50;99.90;;;;;;5046620;28;20204;-81
2022/08/16 04:03:05;;;;;;;8.17;7.53;;;15.50;99.90;;;;;;5042733;28;20198;-84
2022/08/16 04:05:34;;;;;;;8.27;7.57;;;15.50;99.90;;;;;;5045594;28;20210;-81
2022/08/16 04:08:02;;;;;;;7.83;7.23;;;15.40;99.90;;;;;;5044752;28;20284;-81
2022/08/16 04:10:30;;;;;;;8.00;7.40;;;15.40;99.90;;;;;;5042665;28;20211;-81
2022/08/16 04:12:58;;;;;;;8.53;7.80;;;15.50;99.90;;;;;;5046294;28;20228;-81
2022/08/16 04:15:28;;;;;;;8.63;7.93;;;15.40;99.90;;;;;;5045867;28;20667;-81
2022/08/16 04:18:09;;;;;;;8.33;7.73;;;15.40;99.90;;;;;;5040174;28;20231;-80
2022/08/16 04:20:37;;;;;;;8.10;7.50;;;15.50;99.90;;;;;;5045645;28;20561;-81
2022/08/16 04:23:07;;;;;;;8.20;7.60;;;15.60;99.90;;;;;;5049233;28;20209;-81
2022/08/16 04:25:36;;;;;;;8.13;7.53;;;15.50;99.90;;;;;;5035400;28;20223;-81
2022/08/16 04:28:04;;;;;;;8.53;7.90;;;15.60;99.90;;;;;;5047606;28;20250;-81
2022/08/16 04:30:31;;;;;;;8.30;7.70;;;15.60;99.90;;;;;;5047050;28;20206;-81
2022/08/16 04:32:59;;;;;;;8.10;7.50;;;15.70;99.90;;;;;;5036702;28;20204;-81
2022/08/16 04:35:26;;;;;;;8.00;7.40;;;15.70;99.90;;;;;;5040994;28;20625;-81
2022/08/16 04:37:53;;;;;;;8.50;7.90;;;15.70;99.90;;;;;;5043063;28;20220;-81
2022/08/16 04:40:24;;;;;;;8.47;7.87;;;15.80;99.90;;;;;;5039435;28;20199;-81
2022/08/16 04:42:54;;;;;;;8.07;7.47;;;15.80;99.90;;;;;;5039722;28;20209;-80
2022/08/16 04:45:23;;;;;;;8.13;7.53;;;15.80;99.90;;;;;;5034216;28;20290;-81
2022/08/16 04:47:50;;;;;;;8.00;7.30;;;15.80;99.90;;;;;;5028977;28;20230;-81
2022/08/16 04:50:21;;;;;;;8.10;7.40;;;15.80;99.90;;;;;;5045083;28;20283;-81
2022/08/16 04:52:59;;;;;;;8.10;7.50;;;15.90;99.90;;;;;;5043176;28;20203;-81
2022/08/16 04:55:29;;;;;;;7.83;7.33;;;16.00;99.90;;;;;;5040468;28;20314;-81
2022/08/16 04:57:57;;;;;;;8.70;8.00;;;16.00;99.90;;;;;;5044602;28;20223;-81
2022/08/16 05:00:32;;;;;;;8.50;7.90;;;16.00;99.90;;;;;;5039278;28;20210;-81
2022/08/16 05:03:05;;;;;;;8.53;7.83;;;16.10;99.90;;;;;;5036890;28;20204;-81
2022/08/16 05:05:37;;;;;;;8.37;7.77;;;16.10;99.90;;;;;;5040431;28;20253;-81
2022/08/16 05:08:05;;;;;;;8.03;7.43;;;16.10;99.90;;;;;;5043392;28;20243;-81
2022/08/16 05:10:33;;;;;;;8.67;7.97;;;16.20;99.90;;;;;;5040028;28;20206;-81
2022/08/16 05:13:03;;;;;;;8.00;7.40;;;16.30;99.90;;;;;;5045988;28;20206;-81
2022/08/16 05:15:30;;;;;;;8.73;8.07;;;16.40;99.90;;;;;;5045586;28;20593;-81
2022/08/16 05:17:57;;;;;;;8.03;7.43;;;16.50;99.90;;;;;;5044773;28;20708;-81
2022/08/16 05:20:24;;;;;;;8.17;7.57;;;16.60;99.90;;;;;;5046187;28;20222;-81
2022/08/16 05:22:55;;;;;;;8.13;7.53;;;16.70;99.90;;;;;;5042963;28;20197;-81
2022/08/16 05:25:22;;;;;;;6.90;6.40;;;16.80;99.90;;;;;;5048497;28;20197;-81
2022/08/16 05:27:54;;;;;;;4.40;3.90;;;16.90;99.90;;;;;;5043799;28;20611;-81
2022/08/16 05:30:23;;;;;;;4.20;3.70;;;17.00;99.90;;;;;;5038619;28;20615;-81
2022/08/16 05:32:50;;;;;;;4.43;3.90;;;17.00;99.90;;;;;;5038218;28;20670;-81
2022/08/16 05:35:18;;;;;;;6.30;5.70;;;17.10;99.90;;;;;;5034170;28;20219;-81
2022/08/16 05:38:03;;;;;;;6.60;6.07;;;17.20;99.90;;;;;;5040811;28;20305;-81
2022/08/16 05:40:32;;;;;;;5.33;3.80;;;17.40;99.90;;;;;;5046144;28;20199;-82
2022/08/16 05:43:00;;;;;;;5.70;4.67;;;17.50;99.90;;;;;;5035760;28;20197;-81
2022/08/16 05:45:28;;;;;;;4.47;4.07;;;17.60;99.90;;;;;;5039026;28;20849;-81
2022/08/16 05:47:58;;;;;;;6.10;5.50;;;17.90;99.90;;;;;;5075168;22;20230;-78
2022/08/16 05:50:25;;;;;;;4.07;3.70;;;18.10;99.90;;;;;;5046497;28;20691;-79
2022/08/16 05:52:55;;;;;;;4.20;3.80;;;18.20;99.90;;;;;;5050847;28;20197;-79
2022/08/16 05:55:23;;;;;;;3.83;3.53;;;18.30;99.90;;;;;;5043601;28;20286;-78
2022/08/16 05:57:51;;;;;;;4.57;4.03;;;18.40;99.90;;;;;;5049853;28;20669;-78
2022/08/16 06:00:18;;;;;;;4.83;4.13;;;18.50;99.90;;;;;;5027855;28;20202;-80
2022/08/16 06:02:48;;;;;;;6.10;4.20;;;18.60;99.90;;;;;;5032921;28;20217;-78
2022/08/16 06:05:51;;;;;;;6.63;6.03;;;18.70;99.90;;;;;;5013184;28;20205;-80
2022/08/16 06:08:18;;;;;;;6.77;6.27;;;18.80;99.90;;;;;;5030338;28;20213;-79
2022/08/16 06:10:47;;;;;;;5.03;4.53;;;18.80;99.90;;;;;;5032277;28;20236;-80
2022/08/16 06:13:14;;;;;;;5.57;3.97;;;18.90;99.90;;;;;;5028722;28;20208;-79
2022/08/16 06:15:41;;;;;;;10.50;9.70;;;18.90;99.90;;;;;;5033097;28;20287;-80
2022/08/16 06:18:10;;;;;;;4.13;3.73;;;19.10;99.90;;;;;;5031591;28;20271;-79
2022/08/16 06:20:36;;;;;;;4.70;4.00;;;19.20;99.90;;;;;;5032276;28;20713;-79
2022/08/16 06:23:25;;;;;;;5.90;5.40;;;19.30;99.90;;;;;;5032390;28;20639;-79
2022/08/16 06:26:01;;;;;;;8.03;7.40;;;19.50;99.90;;;;;;5034397;28;20271;-79
2022/08/16 06:28:33;;;;;;;5.10;3.80;;;19.70;99.90;;;;;;5029128;28;20227;-80
2022/08/16 06:31:00;;;;;;;5.90;5.40;;;19.90;99.90;;;;;;5032956;28;20199;-79
2022/08/16 06:33:29;;;;;;;4.40;4.10;;;20.00;99.90;;;;;;5030335;28;20260;-80
2022/08/16 06:35:56;;;;;;;4.57;3.80;;;20.00;99.90;;;;;;5027831;28;20223;-80
2022/08/16 06:38:24;;;;;;;7.80;7.10;;;20.10;99.90;;;;;;5034285;28;20597;-80
2022/08/16 06:40:51;;;;;;;5.03;4.50;;;20.20;99.90;;;;;;5028382;28;20669;-79
2022/08/16 06:43:20;;;;;;;5.03;4.60;;;20.30;99.90;;;;;;5031905;28;20208;-81
2022/08/16 06:45:49;;;;;;;8.60;7.97;;;20.50;99.90;;;;;;5028953;28;20661;-79
2022/08/16 06:48:21;;;;;;;8.90;8.30;;;20.60;99.90;;;;;;5031105;28;20232;-81
2022/08/16 06:50:51;;;;;;;8.47;7.80;;;20.70;99.90;;;;;;5033658;28;20214;-80
2022/08/16 06:53:18;;;;;;;8.60;8.00;;;20.80;99.90;;;;;;5029433;28;20192;-80
2022/08/16 06:55:58;;;;;;;8.80;8.10;;;21.00;99.90;;;;;;5027826;28;20223;-80
2022/08/16 06:58:27;;;;;;;7.53;6.27;;;21.20;99.90;;;;;;5031260;28;20220;-80
2022/08/16 07:01:01;;;;;;;9.70;8.90;;;21.40;99.90;;;;;;5028005;28;20568;-79
2022/08/16 07:03:31;;;;;;;7.13;6.43;;;21.50;99.90;;;;;;5027749;28;20196;-80
2022/08/16 07:06:00;;;;;;;7.10;6.50;;;21.60;99.90;;;;;;5027786;28;20195;-80
2022/08/16 07:08:33;;;;;;;6.57;5.67;;;21.60;99.90;;;;;;5024847;28;20215;-80
2022/08/16 07:11:01;;;;;;;7.53;6.63;;;21.70;99.90;;;;;;5032454;28;20291;-80
2022/08/16 07:13:30;;;;;;;5.27;4.30;;;21.90;99.90;;;;;;5027591;28;20212;-81
2022/08/16 07:15:59;;;;;;;9.03;8.33;;;22.00;99.90;;;;;;5032571;28;20310;-81
2022/08/16 07:18:28;;;;;;;7.80;7.17;;;22.30;99.90;;;;;;5030206;28;20215;-82
2022/08/16 07:20:57;;;;;;;6.20;5.70;;;22.40;99.90;;;;;;5027528;28;20207;-82
2022/08/16 07:23:26;;;;;;;5.90;5.40;;;22.60;99.90;;;;;;5028307;28;20207;-79
2022/08/16 07:25:57;;;;;;;4.37;3.83;;;22.70;99.90;;;;;;5031965;28;20673;-80
2022/08/16 07:28:24;;;;;;;6.87;6.20;;;22.90;99.90;;;;;;5029767;28;20224;-81
2022/08/16 07:30:53;;;;;;;7.53;6.93;;;23.20;99.90;;;;;;5034351;28;20231;-80
2022/08/16 07:33:28;;;;;;;5.10;4.07;;;23.60;99.90;;;;;;5029175;28;20287;-79
2022/08/16 07:35:55;;;;;;;6.80;6.30;;;24.20;99.90;;;;;;5026632;28;20239;-78
2022/08/16 07:38:25;;;;;;;8.23;7.43;;;24.60;99.90;;;;;;5027512;28;20211;-80
2022/08/16 07:40:56;;;;;;;8.57;6.83;;;24.90;99.90;;;;;;5027502;28;20208;-80
2022/08/16 07:43:24;;;;;;;7.47;6.90;;;25.50;99.90;;;;;;5029974;28;20319;-80
2022/08/16 07:45:51;;;;;;;8.07;7.37;;;26.00;99.90;;;;;;5033027;28;20192;-79
2022/08/16 07:48:19;;;;;;;7.77;7.07;;;26.40;99.90;;;;;;5027619;28;20499;-78
2022/08/16 07:50:50;;;;;;;8.10;7.50;;;26.70;99.90;;;;;;5032180;28;20204;-79
2022/08/16 07:53:17;;;;;;;8.83;4.10;;;27.00;99.90;;;;;;5027953;28;20708;-80
2022/08/16 07:55:44;;;;;;;8.50;7.70;;;27.10;99.90;;;;;;5026931;28;20212;-79
2022/08/16 07:58:13;;;;;;;6.90;6.17;;;27.40;99.90;;;;;;5027181;28;20216;-79
2022/08/16 08:00:40;;;;;;;6.83;6.23;;;27.60;99.90;;;;;;5027553;28;20193;-80
2022/08/16 08:03:08;;;;;;;8.40;7.67;;;27.80;99.90;;;;;;5031355;28;20228;-79
2022/08/16 08:05:34;;;;;;;9.43;7.77;;;27.80;99.90;;;;;;5027098;28;20200;-80
2022/08/16 08:08:01;;;;;;;8.30;7.67;;;27.90;99.90;;;;;;5031414;28;20651;-80
2022/08/16 08:10:29;;;;;;;6.27;5.77;;;28.10;99.90;;;;;;5029123;28;20329;-80
2022/08/16 08:12:58;;;;;;;7.40;6.57;;;28.20;99.90;;;;;;5025921;28;20196;-80
2022/08/16 08:15:27;;;;;;;7.67;6.97;;;28.20;99.90;;;;;;5025968;28;20219;-81
2022/08/16 08:17:55;;;;;;;7.90;7.20;;;28.40;99.90;;;;;;5034181;28;20673;-80
2022/08/16 08:20:29;;;;;;;7.97;7.27;;;28.40;99.90;;;;;;5034595;28;20239;-80
2022/08/16 08:22:59;;;;;;;8.63;7.67;;;28.50;99.90;;;;;;5032607;28;20204;-82
2022/08/16 08:25:28;;;;;;;8.43;7.73;;;28.50;99.90;;;;;;5034652;28;20192;-82
2022/08/16 08:27:59;;;;;;;8.33;7.53;;;28.70;99.90;;;;;;5033090;28;20318;-81
2022/08/16 08:30:28;;;;;;;7.90;7.20;;;28.90;99.90;;;;;;5034665;28;20206;-83
2022/08/16 08:32:55;;;;;;;8.00;7.40;;;29.00;99.90;;;;;;5032674;28;20283;-83
2022/08/16 08:35:22;;;;;;;10.23;7.90;;;29.00;99.90;;;;;;5033631;28;20239;-82
2022/08/16 08:37:48;;;;;;;8.60;7.90;;;29.10;99.90;;;;;;5033990;28;20196;-80
2022/08/16 08:40:16;;;;;;;8.17;7.57;;;29.20;99.90;;;;;;5033502;28;20228;-80
2022/08/16 08:42:44;;;;;;;8.13;7.43;;;29.30;99.90;;;;;;5033482;28;20200;-82
2022/08/16 08:45:14;;;;;;;8.23;7.63;;;29.30;99.90;;;;;;5027698;28;20604;-80
2022/08/16 08:47:45;;;;;;;7.10;6.40;;;29.40;99.90;;;;;;5027081;28;20200;-79
2022/08/16 08:50:16;;;;;;;7.57;6.87;;;29.50;99.80;;;;;;5029065;28;20203;-82
2022/08/16 08:52:44;;;;;;;7.03;6.43;;;29.40;98.90;;;;;;5033221;28;20200;-80
2022/08/16 08:55:14;;;;;;;8.40;7.70;;;29.50;99.60;;;;;;5028646;28;20227;-83
2022/08/16 08:57:44;;;;;;;8.77;7.87;;;29.80;98.80;;;;;;5029674;28;20245;-80
2022/08/16 09:00:45;;;;;;;7.83;7.20;;;29.80;98.80;;;;;;5021638;28;20214;-83
2022/08/16 09:03:14;;;;;;;8.97;7.77;;;29.70;98.70;;;;;;5028070;28;20227;-80
2022/08/16 09:05:42;;;;;;;8.37;7.63;;;29.90;98.30;;;;;;5032746;28;20669;-80
2022/08/16 09:08:10;;;;;;;8.40;7.70;;;30.00;98.10;;;;;;5024716;28;20215;-83
2022/08/16 09:10:46;;;;;;;8.43;7.63;;;30.20;96.80;;;;;;5030799;28;20218;-82
2022/08/16 09:13:13;;;;;;;8.17;7.47;;;29.20;97.60;;;;;;5025746;28;20205;-80
2022/08/16 09:15:47;;;;;;;8.33;7.63;;;28.80;97.90;;;;;;5025067;28;20696;-81
2022/08/16 09:18:17;;;;;;;8.30;7.70;;;28.90;98.20;;;;;;5024690;28;20222;-80
2022/08/16 09:20:44;;;;;;;7.63;7.13;;;29.20;97.70;;;;;;5024605;28;20196;-80
2022/08/16 09:23:12;;;;;;;8.10;7.30;;;29.40;96.70;;;;;;5032874;28;20200;-81
2022/08/16 09:25:44;;;;;;;8.00;7.40;;;29.00;96.70;;;;;;5029013;28;20203;-81
2022/08/16 09:28:15;;;;;;;7.33;6.63;;;28.90;97.70;;;;;;5025835;28;20625;-81
2022/08/16 09:30:49;;;;;;;6.63;5.83;;;28.60;98.10;;;;;;5024546;28;20250;-81
2022/08/16 09:33:18;;;;;;;6.43;5.90;;;29.00;98.00;;;;;;5032598;28;20261;-81
2022/08/16 09:35:46;;;;;;;6.10;5.60;;;29.40;97.20;;;;;;5029352;28;20211;-81
2022/08/16 09:38:13;;;;;;;6.27;5.63;;;29.30;97.50;;;;;;5024896;28;20288;-80
2022/08/16 09:40:41;;;;;;;6.37;5.77;;;29.20;96.20;;;;;;5024958;28;20595;-82
2022/08/16 09:43:08;;;;;;;6.10;5.50;;;29.20;97.40;;;;;;5031975;28;20205;-80
2022/08/16 09:45:37;;;;;;;8.00;7.30;;;29.50;97.00;;;;;;5034245;28;20249;-82
2022/08/16 09:48:05;;;;;;;7.97;7.27;;;29.90;96.20;;;;;;5029259;28;20231;-80
2022/08/16 09:50:34;;;;;;;7.67;7.03;;;30.30;96.00;;;;;;5032204;28;20238;-82
2022/08/16 09:53:01;;;;;;;5.73;5.23;;;30.70;94.90;;;;;;5024119;28;20294;-83
2022/08/16 09:55:28;;;;;;;7.47;6.20;;;31.00;95.20;;;;;;5028786;28;20214;-82
2022/08/16 09:57:56;;;;;;;6.73;6.23;;;31.20;94.10;;;;;;5026566;28;20258;-80
2022/08/16 10:00:25;;;;;;;6.97;6.33;;;31.10;93.70;;;;;;5028547;28;20207;-80
2022/08/16 10:02:52;;;;;;;6.73;5.37;;;31.20;93.80;;;;;;5029816;28;20203;-82
2022/08/16 10:05:20;;;;;;;6.70;6.10;;;30.60;93.10;;;;;;5034007;28;20271;-80
2022/08/16 10:07:51;;;;;;;6.83;6.23;;;30.10;93.80;;;;;;5028573;28;20196;-82
2022/08/16 10:10:19;;;;;;;6.80;5.80;;;29.40;95.10;;;;;;5033680;28;20200;-80
2022/08/16 10:15:31;;;;;;;5.77;5.30;;;29.00;96.10;;;;;;5029731;28;20214;-80
2022/08/16 10:17:58;;;;;;;4.60;4.13;;;29.00;95.20;;;;;;5034331;28;20277;-80
2022/08/16 10:20:26;;;;;;;3.90;3.50;;;28.90;95.90;;;;;;5031695;28;20299;-82
2022/08/16 10:22:54;;;;;;;4.07;3.33;;;29.10;95.90;;;;;;5028100;28;20219;-80
2022/08/16 10:25:21;;;;;;;3.53;3.10;;;29.50;95.60;;;;;;5033592;28;20267;-80
2022/08/16 10:27:48;;;;;;;3.43;3.10;;;29.60;95.60;;;;;;5034037;28;20253;-82
2022/08/16 10:30:17;;;;;;;3.83;3.50;;;29.80;94.50;;;;;;5027967;28;20700;-81
2022/08/16 10:32:44;;;;;;;5.83;5.33;;;29.90;94.30;;;;;;5036483;28;20235;-82
2022/08/16 10:35:11;;;;;;;6.00;5.53;;;29.80;94.00;;;;;;5028844;28;20204;-80
2022/08/16 10:37:38;;;;;;;6.70;6.10;;;29.60;94.10;;;;;;5028909;28;20200;-80
2022/08/16 10:40:09;;;;;;;6.20;5.77;;;29.70;94.40;;;;;;5032793;28;20259;-81
2022/08/16 10:42:36;;;;;;;6.77;6.23;;;29.90;94.30;;;;;;5032949;28;20539;-81
2022/08/16 10:45:04;;;;;;;7.03;6.43;;;30.00;93.80;;;;;;5030469;28;20199;-82
2022/08/16 10:47:31;;;;;;;4.33;3.87;;;29.90;94.10;;;;;;5030850;28;20230;-80
2022/08/16 10:49:59;;;;;;;4.10;3.60;;;29.90;94.10;;;;;;5033299;28;20227;-81
2022/08/16 10:52:26;;;;;;;4.90;3.40;;;29.90;94.40;;;;;;5027951;28;20223;-80
2022/08/16 10:54:53;;;;;;;4.47;3.67;;;30.00;94.50;;;;;;5032853;28;20192;-80
2022/08/16 10:57:21;;;;;;;3.90;3.60;;;29.90;93.20;;;;;;5027589;28;20220;-80
2022/08/16 10:59:48;;;;;;;6.53;4.60;;;29.90;93.70;;;;;;5027289;28;20224;-81
2022/08/16 11:02:14;;;;;;;5.83;5.00;;;29.90;93.10;;;;;;5033296;28;20259;-80
2022/08/16 11:04:41;;;;;;;5.73;5.23;;;29.60;93.20;;;;;;5033127;28;20221;-82
2022/08/16 11:07:09;;;;;;;6.83;6.27;;;29.00;92.80;;;;;;5032889;28;20298;-80
2022/08/16 11:09:36;;;;;;;7.37;6.80;;;28.60;94.10;;;;;;5034175;28;20223;-82
2022/08/16 11:12:05;;;;;;;6.90;6.40;;;28.40;94.00;;;;;;5028362;28;20196;-82
2022/08/16 11:14:34;;;;;;;6.60;6.10;;;28.50;94.90;;;;;;5036941;28;20254;-80
2022/08/16 11:17:02;;;;;;;4.63;3.43;;;28.70;93.70;;;;;;5027499;28;20314;-82
2022/08/16 11:19:29;;;;;;;4.23;3.20;;;28.70;93.70;;;;;;5026406;28;20216;-82
2022/08/16 11:21:57;;;;;;;6.53;4.77;;;28.60;93.80;;;;;;5037212;28;20287;-80
2022/08/16 11:24:24;;;;;;;7.17;6.67;;;28.30;93.20;;;;;;5032536;28;20665;-81
2022/08/16 11:26:51;;;;;;;6.53;5.97;;;27.90;94.50;;;;;;5027280;28;20185;-78
2022/08/16 11:29:18;;;;;;;6.73;6.17;;;27.90;94.60;;;;;;5031685;28;20223;-81
2022/08/16 11:31:48;;;;;;;6.43;5.93;;;27.90;94.20;;;;;;5024589;28;20735;-81
2022/08/16 11:34:15;;;;;;;6.20;5.70;;;27.80;93.60;;;;;;5027455;28;20206;-81
2022/08/16 11:36:42;;;;;;;7.27;6.67;;;27.80;94.80;;;;;;5034481;28;20270;-81
2022/08/16 11:39:09;;;;;;;6.47;5.97;;;27.80;93.70;;;;;;5028312;28;20597;-80
2022/08/16 11:41:37;;;;;;;3.50;3.20;;;28.10;94.10;;;;;;5027868;28;20200;-80
2022/08/16 11:44:05;;;;;;;5.10;3.20;;;28.30;93.70;;;;;;5031288;28;20196;-80
2022/08/16 11:46:33;;;;;;;6.53;3.40;;;28.20;93.50;;;;;;5026306;28;20296;-82
2022/08/16 11:49:03;;;;;;;3.50;3.20;;;28.40;93.80;;;;;;5028278;28;20665;-79
2022/08/16 11:51:30;;;;;;;3.83;3.00;;;28.60;93.60;;;;;;5029823;28;20196;-80
2022/08/16 11:53:57;;;;;;;3.77;3.40;;;28.80;93.60;;;;;;5032356;28;20200;-79
2022/08/16 11:56:25;;;;;;;3.87;3.47;;;28.80;93.30;;;;;;5026699;28;20343;-80
2022/08/16 11:58:52;;;;;;;6.83;3.90;;;28.70;93.10;;;;;;5032159;28;20293;-80
2022/08/16 12:01:18;;;;;;;5.20;4.80;;;28.80;93.30;;;;;;5028926;28;20605;-80
2022/08/16 12:03:45;;;;;;;5.50;5.10;;;28.90;92.90;;;;;;5026236;28;20263;-80
2022/08/16 12:06:17;;;;;;;6.60;6.00;;;29.00;92.90;;;;;;5032207;28;20200;-79
2022/08/16 12:08:46;;;;;;;7.73;6.83;;;29.00;92.40;;;;;;5027300;28;20295;-79
2022/08/16 12:11:15;;;;;;;6.70;6.20;;;29.20;92.50;;;;;;5030631;28;20200;-80
2022/08/16 12:13:43;;;;;;;6.70;6.10;;;29.10;91.90;;;;;;5025350;28;20200;-80
2022/08/16 12:16:11;;;;;;;6.50;5.90;;;28.90;91.60;;;;;;5025866;28;20208;-80
2022/08/16 12:18:39;;;;;;;5.80;5.40;;;28.70;92.00;;;;;;5030476;28;21003;-80
2022/08/16 12:21:06;;;;;;;6.03;5.60;;;28.60;92.00;;;;;;5024403;28;20199;-80
2022/08/16 12:23:34;;;;;;;6.53;5.83;;;28.70;92.10;;;;;;5034108;28;20199;-80
2022/08/16 12:26:01;;;;;;;8.40;6.40;;;28.50;91.60;;;;;;5025854;28;20230;-80
2022/08/16 12:28:30;;;;;;;6.57;6.07;;;28.10;91.30;;;;;;5030183;28;20313;-79
2022/08/16 12:30:57;;;;;;;3.20;2.90;;;28.00;92.30;;;;;;5034836;28;20199;-80
2022/08/16 12:33:24;;;;;;;4.97;4.57;;;27.90;93.00;;;;;;5025430;28;20188;-80
2022/08/16 12:35:51;;;;;;;6.53;6.03;;;27.80;93.20;;;;;;5027540;28;20216;-79
2022/08/16 12:38:18;;;;;;;6.03;5.63;;;27.80;93.20;;;;;;5031514;28;20213;-80
2022/08/16 12:40:49;;;;;;;6.07;5.57;;;27.80;92.70;;;;;;5026986;28;20208;-80
2022/08/16 12:43:20;;;;;;;5.03;3.20;;;27.90;92.90;;;;;;5029262;28;20201;-80
2022/08/16 12:45:49;;;;;;;4.30;3.30;;;28.10;92.30;;;;;;5031607;28;20191;-80
2022/08/16 12:51:06;;;;;;;3.87;3.47;;;28.10;92.50;;;;;;5031628;28;20553;-80
2022/08/16 12:53:35;;;;;;;6.30;5.80;;;28.30;92.80;;;;;;5029841;28;20523;-80
2022/08/16 12:56:04;;;;;;;3.47;3.17;;;28.40;92.70;;;;;;5025431;28;20224;-80
2022/08/16 12:58:31;;;;;;;4.03;3.30;;;28.20;92.90;;;;;;5029593;28;20223;-79
2022/08/16 13:00:59;;;;;;;3.60;3.30;;;28.10;92.80;;;;;;5024884;28;20657;-80
2022/08/16 13:03:27;;;;;;;4.13;3.47;;;28.20;92.40;;;;;;5025537;28;20560;-79